Terminal Aerodrome Forecast
Issued by NWS Twin Cities, MN

Home | Current Version | Previous Version | Text Only | Print | Product List | Glossary Off
Versions: 1 2 3 4 5 6 7 8 9 10 11 12 13 14

000
FTUS43 KMPX 271120
TAFSTC
TAF
KSTC 271120Z 2712/2812 13003KT P6SM SCT050 BKN250
     FM271700 16009KT P6SM SCT050 BKN150
     FM280400 12005KT P6SM SCT040 BKN090
     FM281000 10003KT 6SM BR VCSH SCT007 OVC012=

USA.gov is the U.S. government's official web portal to all federal, state and local government web resources and services.